• Join FlightAware (Why Join?)
  • Login
  • US Flag 
12:01AM EDT


 

Airport Tracker/Info


-or-


 

Live Flight TrackerFlight Track Log ✈ UAL3746 ✈ 16-Jan-2014 ✈ KMHT - KORD

Flight Track Log - Related Links

Times and Time Zones

All times are in EST time to prevent confusion due to time zone crossing. See the UAL3746 flight status page for this flight to view local times or setup timezone preferences in your user account.

Time Position Orientation Groundspeed Altitude Reporting Facility
EST Latitude Longitude Course Direction KTS MPH feet Rate Location/Type
05:18PM 43.0033 -71.3928 18° North 196 226 3,500  Level Boston Center
05:19PM 43.0469 -71.4500 316° Northwest 218 251 5,500 2,040 Climbing Boston Center
05:20PM 42.9396 -72.0074 274° West  Level Estimated
05:20PM 43.0814 -71.5367 299° West 260 299 7,700  Level Boston Center
05:21PM 42.9408 -72.1503 270° West  Level Estimated
05:21PM 43.0869 -71.6358 274° West 263 303 9,900  Level Boston Center
05:22PM 42.9419 -72.2932 277° West  Level Estimated
05:22PM 43.0914 -71.7331 274° West 258 297 12,400  Level Boston Center
05:23PM 43.0947 -71.8361 273° West 255 293 14,200 2,040 Climbing Boston Center
05:24PM 43.0981 -71.9364 273° West 263 303 16,600 1,920 Climbing Boston Center
05:25PM 43.1011 -72.0394 272° West 271 312 18,200 1,020 Climbing Boston Center
05:26PM 43.1056 -72.1639 273° West 308 354 18,800 780 Climbing Boston Center
05:27PM 43.1106 -72.2969 273° West 345 397 19,900 1,260 Climbing Boston Center
05:28PM 43.1156 -72.4317 273° West 353 406 21,400 1,500 Climbing Boston Center
05:29PM 43.1186 -72.5706 272° West 362 417 23,000 1,440 Climbing Boston Center
05:30PM 43.1214 -72.6978 272° West 366 421 24,400 1,080 Climbing Boston Center
05:31PM 43.1250 -72.8381 272° West 369 425 25,300 900 Climbing Boston Center
05:32PM 43.1297 -73.0108 272° West 380 437 26,300 780 Climbing Boston Center
05:33PM 43.1328 -73.1378 272° West 386 444 27,000 780 Climbing Boston Center
05:34PM 43.1361 -73.2858 272° West 391 450 28,000 480 Climbing Boston Center
05:35PM 43.1389 -73.4611 271° West 400 460 28,000 720 Level Boston Center
05:36PM 43.1428 -73.6206 272° West 413 475 29,500 1,500 Climbing Boston Center
05:37PM 43.1456 -73.7753 271° West 400 460 31,200 1,500 Climbing Boston Center
05:38PM 43.1481 -73.9147 271° West 377 434 32,600 1,320 Climbing Boston Center
05:39PM 43.1503 -74.0506 271° West 361 415 33,900 660 Climbing Boston Center
05:40PM 43.1522 -74.1847 271° West 355 409 34,000  Climbing Boston Center
05:41PM 43.1525 -74.3267 270° West 366 421 34,000  Level Boston Center
05:42PM 43.1539 -74.4742 271° West 382 440 34,000  Level Boston Center
05:43PM 43.1561 -74.6247 271° West 393 452 34,000  Level Boston Center
05:44PM 43.1578 -74.8067 271° West 398 458 34,000  Level Boston Center
05:45PM 43.1592 -74.9569 271° West 394 453 34,000  Level Boston Center
05:47PM 43.1606 -75.1056 271° West 389 448 34,000  Level Boston Center
05:48PM 43.1614 -75.2578 270° West 394 453 34,000  Level Boston Center
05:49PM 43.1611 -75.4108 270° West 395 455 34,000  Level Boston Center
05:50PM 43.1619 -75.5633 270° West 396 456 34,000  Level Boston Center
05:51PM 43.1614 -75.7150 270° West 396 456 34,000  Level Boston Center
05:52PM 43.1617 -75.8672 270° West 398 458 34,000  Level Boston Center
05:53PM 43.1611 -76.0175 270° West 396 456 34,000  Level Boston Center
05:54PM 43.1606 -76.1708 270° West 404 465 34,000  Level Boston Center
05:55PM 43.1603 -76.3258 270° West 408 470 34,000  Level Boston Center
05:56PM 43.1592 -76.4806 269° West 410 472 34,000  Level Cleveland Center
05:57PM 43.1589 -76.6364 270° West 409 471 34,000  Level Cleveland Center
05:58PM 43.1578 -76.7881 269° West 410 472 34,000  Level Cleveland Center
05:59PM 43.1572 -76.9722 270° West 406 467 34,000  Level Cleveland Center
06:00PM 43.1558 -77.1253 269° West 405 466 34,000  Level Cleveland Center
06:01PM 43.1547 -77.2786 269° West 406 467 34,000  Level Cleveland Center
06:02PM 43.1533 -77.4328 269° West 408 470 34,000  Level Cleveland Center
06:03PM 43.1522 -77.5867 269° West 409 471 34,000  Level Cleveland Center
06:04PM 43.1494 -77.7719 269° West 409 471 34,000  Level Cleveland Center
06:05PM 43.1481 -77.9264 269° West 410 472 34,000  Level Cleveland Center
06:06PM 43.1456 -78.0814 269° West 411 473 34,000  Level Cleveland Center
06:07PM 43.1433 -78.2383 269° West 414 476 34,000  Level Cleveland Center
06:08PM 43.1408 -78.3944 269° West 413 475 34,000  Level Cleveland Center
06:09PM 43.1350 -78.5831 268° West 418 481 34,000  Level Cleveland Center
06:10PM 43.1308 -78.7378 268° West 410 472 34,000  Level Cleveland Center
06:11PM 43.1256 -78.8928 267° West 408 470 34,000  Level Cleveland Center
06:12PM 43.1167 -79.0167 264° West 400 460 34,000  Level Toronto Center
06:13PM 43.1167 -79.1500 270° West 400 460 34,000  Level Toronto Center
06:14PM 43.1000 -79.3167 262° West 410 472 34,000  Level Toronto Center
06:15PM 43.1000 -79.4667 270° West 410 472 34,000  Level Toronto Center
06:16PM 43.1000 -79.6333 270° West 410 472 34,000  Level Toronto Center
06:17PM 43.0833 -79.8000 262° West 410 472 34,000  Level Toronto Center
06:18PM 43.0833 -79.9500 270° West 410 472 34,000  Level Toronto Center
06:19PM 43.0833 -80.0833 270° West 410 472 34,000  Level Toronto Center
06:20PM 43.0667 -80.2500 262° West 410 472 34,000  Level Toronto Center
06:21PM 43.0667 -80.4167 270° West 420 483 34,000  Level Toronto Center
06:22PM 43.0500 -80.5833 262° West 420 483 34,000  Level Toronto Center
06:23PM 43.0500 -80.7333 270° West 420 483 34,000  Level Toronto Center
06:24PM 43.0333 -80.8833 261° West 420 483 34,000  Level Toronto Center
06:25PM 43.0167 -81.0500 262° West 420 483 34,000  Level Toronto Center
06:26PM 43.0167 -81.2000 270° West 420 483 34,000  Level Toronto Center
06:27PM 43.0167 -81.3833 270° West 430 495 34,000  Level Toronto Center
06:28PM 43.0167 -81.5500 270° West 430 495 34,000  Level Toronto Center
06:29PM 43.0167 -81.7000 270° West 430 495 34,000  Level Toronto Center
06:30PM 43.0167 -81.8667 270° West 430 495 34,000  Level Toronto Center
06:31PM 43.0000 -82.0333 262° West 430 495 34,000  Level Toronto Center
06:32PM 43.0000 -82.1833 270° West 430 495 34,000  Level Toronto Center
06:33PM 43.0000 -82.3667 270° West 440 506 34,000  Level Toronto Center
06:34PM 43.0000 -82.5333 270° West 440 506 34,000 -360 Level Toronto Center
06:35PM 42.9833 -82.6833 261° West 440 506 33,300 -1,020 Descending Toronto Center
06:36PM 42.9833 -82.8667 270° West 440 506 32,000 -660 Descending Toronto Center
06:37PM 42.9833 -83.0333 270° West 430 495 32,000  Level Toronto Center
06:38PM 42.9833 -83.1833 270° West 430 495 32,000  Level Toronto Center
06:39PM 42.9667 -83.3500 262° West 440 506 32,000  Level Toronto Center
06:40PM 42.9667 -83.5333 270° West 440 506 32,000  Level Toronto Center
06:41PM 42.9714 -83.6203 274° West 439 505 32,000  Level Cleveland Center
06:42PM 42.9628 -83.7858 266° West 440 506 32,000  Level Cleveland Center
06:43PM 42.9464 -83.9472 262° West 435 501 32,000  Level Cleveland Center
06:44PM 42.9303 -84.1072 262° West 431 496 32,000  Level Cleveland Center
06:45PM 42.9144 -84.2689 262° West 433 498 32,000  Level Cleveland Center
06:46PM 42.8975 -84.4375 262° West 434 499 32,000  Level Cleveland Center
06:46PM 42.8897 -84.5336 264° West 430 495 32,000  Level Chicago Center
06:47PM 42.8697 -84.7283 262° West 433 498 32,000  Level Chicago Center
06:48PM 42.8519 -84.8911 262° West 434 499 32,000  Level Chicago Center
06:49PM 42.8342 -85.0575 262° West 442 509 32,000 -180 Level Chicago Center
06:50PM 42.8172 -85.2208 262° West 438 504 31,700 -1,020 Descending Chicago Center
06:51PM 42.7994 -85.3806 261° West 430 495 30,000 -1,680 Descending Chicago Center
06:53PM 42.7800 -85.5386 261° West 424 488 28,300 -1,860 Descending Chicago Center
06:54PM 42.7525 -85.6881 256° West 409 471 26,200 -2,220 Descending Chicago Center
06:55PM 42.7222 -85.8575 256° West 387 445 23,800 -2,160 Descending Chicago Center
06:56PM 42.6978 -85.9944 256° West 376 433 21,800 -1,800 Descending Chicago Center
06:57PM 42.6728 -86.1292 256° West 369 425 20,100 -900 Descending Chicago Center
06:58PM 42.6475 -86.2617 256° West 364 419 20,000 -600 Descending Chicago Center
06:59PM 42.6222 -86.3917 255° West 356 410 18,900 -1,500 Descending Chicago Center
07:00PM 42.5989 -86.5192 256° West 349 402 16,900 -1,800 Descending Chicago Center
07:01PM 42.5739 -86.6481 255° West 353 406 15,200 -1,800 Descending Chicago Center
07:02PM 42.5411 -86.7947 253° West 338 389 13,200 -1,740 Descending Chicago Center
07:03PM 42.5094 -86.9078 249° West 324 373 11,700 -1,260 Descending Chicago Center
07:04PM 42.4833 -87.0053 250° West 280 322 10,700 -1,020 Descending Chicago Center
07:05PM 42.4575 -87.0983 249° West 265 305 9,600 -840 Descending Chicago Center
07:06PM 42.4325 -87.1900 250° West 262 302 9,000 -660 Descending Chicago Center
07:07PM 42.3933 -87.2689 236° Southwest 276 318 8,300 -1,020 Descending Chicago Center
07:08PM 42.3147 -87.3133 203° Southwest 264 304 7,000 -1,200 Descending Chicago Center
07:09PM 42.2433 -87.3358 193° South 263 303 5,900 -1,020 Descending Chicago Center
07:10PM 42.1753 -87.3578 193° South 255 293 5,000 -960 Descending Chicago Center
07:11PM 42.1050 -87.3764 191° South 253 291 4,000 -300 Descending Chicago Center
07:13PM 42.0000 -87.5000 221° Southwest 218 251 4,100  Climbing Chicago TRACON
07:14PM 42.0000 -87.5667 270° West 221 254 4,100 -120 Level Chicago TRACON
07:15PM 42.0014 -87.6164 272° West 251 289 4,000 -120 Descending Chicago Center
07:16PM 42.0036 -87.6961 272° West 215 247 3,900 -720 Descending Chicago Center
07:17PM 42.0039 -87.7764 270° West 198 228 2,600 -1,020 Descending Chicago Center
07:18PM 42.0036 -87.8278 270° West 171 197 1,900 -540 Descending Chicago Center
07:19PM 42.0017 -87.8608 265° West 144 166 1,500 -420 Descending Chicago Center
07:21PM 41.9667 -87.9000 217° Southwest  Level FlightAware Approximate
07:28PM 41.9793 -87.9074 217° Southwest  Level Estimated